sensor_id;sensor_type;location;lat;lon;timestamp;pressure;altitude;pressure_sealevel;temperature;humidity
43155;BME280;34212;51.018;13.586;2023-02-04T00:02:37;98174.38;;;4.39;100.00
43155;BME280;34212;51.018;13.586;2023-02-04T00:07:39;98232.38;;;4.20;98.84
43155;BME280;34212;51.018;13.586;2023-02-04T00:12:41;98219.31;;;3.97;98.15
43155;BME280;34212;51.018;13.586;2023-02-04T00:17:43;98231.59;;;3.87;98.51
43155;BME280;34212;51.018;13.586;2023-02-04T00:22:44;98252.50;;;3.79;98.26
43155;BME280;34212;51.018;13.586;2023-02-04T00:27:46;98262.00;;;3.70;97.77
43155;BME280;34212;51.018;13.586;2023-02-04T00:32:47;98281.78;;;3.64;97.90
43155;BME280;34212;51.018;13.586;2023-02-04T00:37:50;98298.38;;;3.55;96.82
43155;BME280;34212;51.018;13.586;2023-02-04T00:42:51;98321.78;;;3.37;97.06
43155;BME280;34212;51.018;13.586;2023-02-04T00:47:53;98339.88;;;3.31;97.65
43155;BME280;34212;51.018;13.586;2023-02-04T00:52:54;98377.50;;;3.21;97.07
43155;BME280;34212;51.018;13.586;2023-02-04T00:57:56;98361.69;;;3.10;96.45
43155;BME280;34212;51.018;13.586;2023-02-04T01:02:58;98378.19;;;3.01;96.60
43155;BME280;34212;51.018;13.586;2023-02-04T01:07:59;98412.47;;;3.01;96.81
43155;BME280;34212;51.018;13.586;2023-02-04T01:13:01;98420.38;;;3.01;97.42
43155;BME280;34212;51.018;13.586;2023-02-04T01:18:02;98444.31;;;2.98;97.04
43155;BME280;34212;51.018;13.586;2023-02-04T01:23:04;98450.56;;;2.97;96.96
43155;BME280;34212;51.018;13.586;2023-02-04T01:28:05;98468.16;;;2.96;97.46
43155;BME280;34212;51.018;13.586;2023-02-04T01:33:07;98471.03;;;2.93;96.14
43155;BME280;34212;51.018;13.586;2023-02-04T01:38:08;98485.81;;;2.83;96.31
43155;BME280;34212;51.018;13.586;2023-02-04T01:43:10;98491.97;;;2.84;96.89
43155;BME280;34212;51.018;13.586;2023-02-04T01:48:12;98527.13;;;2.83;97.03
43155;BME280;34212;51.018;13.586;2023-02-04T01:53:23;98519.69;;;2.76;96.39
43155;BME280;34212;51.018;13.586;2023-02-04T01:58:29;98545.09;;;2.77;96.63
43155;BME280;34212;51.018;13.586;2023-02-04T02:03:32;98576.94;;;2.74;96.44
43155;BME280;34212;51.018;13.586;2023-02-04T02:08:35;98587.69;;;2.71;96.76
43155;BME280;34212;51.018;13.586;2023-02-04T02:13:37;98590.31;;;2.71;96.07
43155;BME280;34212;51.018;13.586;2023-02-04T02:18:38;98626.78;;;2.65;94.73
43155;BME280;34212;51.018;13.586;2023-02-04T02:23:51;98627.25;;;2.46;94.26
43155;BME280;34212;51.018;13.586;2023-02-04T02:28:54;98645.88;;;2.43;95.09
43155;BME280;34212;51.018;13.586;2023-02-04T02:33:55;98668.88;;;2.41;93.31
43155;BME280;34212;51.018;13.586;2023-02-04T02:38:57;98678.13;;;2.08;94.04
43155;BME280;34212;51.018;13.586;2023-02-04T02:44:01;98693.28;;;2.04;95.06
43155;BME280;34212;51.018;13.586;2023-02-04T02:49:02;98696.34;;;2.11;93.93
43155;BME280;34212;51.018;13.586;2023-02-04T02:54:04;98717.41;;;2.11;94.47
43155;BME280;34212;51.018;13.586;2023-02-04T02:59:16;98714.56;;;2.14;94.39
43155;BME280;34212;51.018;13.586;2023-02-04T03:04:19;98723.00;;;2.19;94.30
43155;BME280;34212;51.018;13.586;2023-02-04T03:09:24;98737.31;;;2.28;94.57
43155;BME280;34212;51.018;13.586;2023-02-04T03:14:26;98767.75;;;2.32;94.51
43155;BME280;34212;51.018;13.586;2023-02-04T03:19:28;98783.22;;;2.37;94.68
43155;BME280;34212;51.018;13.586;2023-02-04T03:24:30;98814.81;;;2.37;94.60
43155;BME280;34212;51.018;13.586;2023-02-04T03:29:32;98813.53;;;2.29;94.77
43155;BME280;34212;51.018;13.586;2023-02-04T03:34:34;98825.03;;;2.28;95.58
43155;BME280;34212;51.018;13.586;2023-02-04T03:39:35;98837.63;;;2.23;94.67
43155;BME280;34212;51.018;13.586;2023-02-04T03:44:37;98861.72;;;2.17;95.18
43155;BME280;34212;51.018;13.586;2023-02-04T03:49:38;98877.72;;;2.14;95.53
43155;BME280;34212;51.018;13.586;2023-02-04T03:54:40;98895.94;;;2.17;95.85
43155;BME280;34212;51.018;13.586;2023-02-04T03:59:41;98919.09;;;2.12;95.17
43155;BME280;34212;51.018;13.586;2023-02-04T04:04:43;98933.50;;;2.06;95.38
43155;BME280;34212;51.018;13.586;2023-02-04T04:09:44;98949.03;;;1.97;94.87
43155;BME280;34212;51.018;13.586;2023-02-04T04:14:45;98969.13;;;1.98;95.36
43155;BME280;34212;51.018;13.586;2023-02-04T04:19:47;98978.91;;;1.96;94.30
43155;BME280;34212;51.018;13.586;2023-02-04T04:24:49;98977.59;;;1.89;94.52
43155;BME280;34212;51.018;13.586;2023-02-04T04:29:51;99004.56;;;1.92;95.32
43155;BME280;34212;51.018;13.586;2023-02-04T04:34:52;99007.38;;;2.03;95.25
43155;BME280;34212;51.018;13.586;2023-02-04T04:39:54;99018.16;;;2.13;95.80
43155;BME280;34212;51.018;13.586;2023-02-04T04:44:55;99026.63;;;2.18;95.34
43155;BME280;34212;51.018;13.586;2023-02-04T04:49:57;99030.81;;;2.21;95.69
43155;BME280;34212;51.018;13.586;2023-02-04T04:54:58;99053.97;;;2.16;94.76
43155;BME280;34212;51.018;13.586;2023-02-04T04:59:59;99063.84;;;2.12;94.70
43155;BME280;34212;51.018;13.586;2023-02-04T05:05:01;99076.81;;;2.01;94.12
43155;BME280;34212;51.018;13.586;2023-02-04T05:10:03;99085.09;;;1.95;94.34
43155;BME280;34212;51.018;13.586;2023-02-04T05:15:05;99102.28;;;1.86;94.15
43155;BME280;34212;51.018;13.586;2023-02-04T05:20:07;99096.66;;;1.78;93.71
43155;BME280;34212;51.018;13.586;2023-02-04T05:25:09;99116.53;;;1.68;93.94
43155;BME280;34212;51.018;13.586;2023-02-04T05:30:11;99125.75;;;1.60;94.18
43155;BME280;34212;51.018;13.586;2023-02-04T05:35:14;99135.97;;;1.51;93.96
43155;BME280;34212;51.018;13.586;2023-02-04T05:40:16;99153.13;;;1.42;94.09
43155;BME280;34212;51.018;13.586;2023-02-04T05:45:18;99164.66;;;1.39;94.33
43155;BME280;34212;51.018;13.586;2023-02-04T05:50:19;99182.97;;;1.41;94.71
43155;BME280;34212;51.018;13.586;2023-02-04T05:55:20;99184.66;;;1.42;94.69
43155;BME280;34212;51.018;13.586;2023-02-04T06:00:22;99193.22;;;1.46;94.42
43155;BME280;34212;51.018;13.586;2023-02-04T06:05:23;99217.03;;;1.43;94.46
43155;BME280;34212;51.018;13.586;2023-02-04T06:10:25;99220.44;;;1.45;94.85
43155;BME280;34212;51.018;13.586;2023-02-04T06:15:27;99236.28;;;1.43;94.66
43155;BME280;34212;51.018;13.586;2023-02-04T06:20:28;99246.56;;;1.48;94.60
43155;BME280;34212;51.018;13.586;2023-02-04T06:25:31;99267.59;;;1.48;94.17
43155;BME280;34212;51.018;13.586;2023-02-04T06:30:33;99280.28;;;1.55;94.53
43155;BME280;34212;51.018;13.586;2023-02-04T06:35:35;99291.50;;;1.59;94.18
43155;BME280;34212;51.018;13.586;2023-02-04T06:40:37;99307.53;;;1.54;93.84
43155;BME280;34212;51.018;13.586;2023-02-04T06:45:38;99324.09;;;1.41;92.99
43155;BME280;34212;51.018;13.586;2023-02-04T06:50:40;99328.13;;;1.30;93.23
43155;BME280;34212;51.018;13.586;2023-02-04T06:55:42;99349.66;;;1.21;93.13
43155;BME280;34212;51.018;13.586;2023-02-04T07:00:43;99346.63;;;1.13;93.13
43155;BME280;34212;51.018;13.586;2023-02-04T07:05:45;99358.81;;;1.14;93.76
43155;BME280;34212;51.018;13.586;2023-02-04T07:10:46;99355.25;;;1.15;93.25
43155;BME280;34212;51.018;13.586;2023-02-04T07:15:48;99369.16;;;1.17;93.43
43155;BME280;34212;51.018;13.586;2023-02-04T07:20:50;99361.22;;;1.19;93.08
43155;BME280;34212;51.018;13.586;2023-02-04T07:25:51;99371.56;;;1.22;93.28
43155;BME280;34212;51.018;13.586;2023-02-04T07:30:59;99374.94;;;1.24;92.99
43155;BME280;34212;51.018;13.586;2023-02-04T07:36:01;99380.72;;;1.30;92.99
43155;BME280;34212;51.018;13.586;2023-02-04T07:41:03;99398.88;;;1.35;93.42
43155;BME280;34212;51.018;13.586;2023-02-04T07:46:04;99415.38;;;1.37;93.55
43155;BME280;34212;51.018;13.586;2023-02-04T07:51:06;99419.41;;;1.44;94.59
43155;BME280;34212;51.018;13.586;2023-02-04T07:56:07;99419.91;;;1.51;94.85
43155;BME280;34212;51.018;13.586;2023-02-04T08:01:09;99425.00;;;1.54;93.89
43155;BME280;34212;51.018;13.586;2023-02-04T08:06:11;99438.22;;;1.52;93.93
43155;BME280;34212;51.018;13.586;2023-02-04T08:11:13;99442.31;;;1.58;94.43
43155;BME280;34212;51.018;13.586;2023-02-04T08:16:14;99456.91;;;1.64;94.73
43155;BME280;34212;51.018;13.586;2023-02-04T08:21:16;99463.69;;;1.68;94.91
43155;BME280;34212;51.018;13.586;2023-02-04T08:26:19;99482.44;;;1.77;94.63
43155;BME280;34212;51.018;13.586;2023-02-04T08:31:21;99487.72;;;1.77;94.13
43155;BME280;34212;51.018;13.586;2023-02-04T08:36:23;99500.88;;;1.77;94.41
43155;BME280;34212;51.018;13.586;2023-02-04T08:41:24;99514.63;;;1.82;95.35
43155;BME280;34212;51.018;13.586;2023-02-04T08:46:26;99515.66;;;1.96;95.04
43155;BME280;34212;51.018;13.586;2023-02-04T08:51:27;99524.84;;;2.04;95.42
43155;BME280;34212;51.018;13.586;2023-02-04T08:56:30;99529.94;;;2.07;94.56
43155;BME280;34212;51.018;13.586;2023-02-04T09:01:31;99530.94;;;2.05;94.79
43155;BME280;34212;51.018;13.586;2023-02-04T09:06:33;99549.03;;;2.11;95.18
43155;BME280;34212;51.018;13.586;2023-02-04T09:11:34;99545.06;;;2.20;95.75
43155;BME280;34212;51.018;13.586;2023-02-04T09:16:35;99548.97;;;2.28;94.99
43155;BME280;34212;51.018;13.586;2023-02-04T09:21:37;99553.72;;;2.38;95.88
43155;BME280;34212;51.018;13.586;2023-02-04T09:26:40;99552.16;;;2.34;94.90
43155;BME280;34212;51.018;13.586;2023-02-04T09:31:41;99562.88;;;2.30;95.00
43155;BME280;34212;51.018;13.586;2023-02-04T09:36:43;99571.72;;;2.29;95.72
43155;BME280;34212;51.018;13.586;2023-02-04T09:41:44;99570.53;;;2.19;95.80
43155;BME280;34212;51.018;13.586;2023-02-04T09:46:48;99588.13;;;2.19;95.18
43155;BME280;34212;51.018;13.586;2023-02-04T09:51:51;99600.09;;;2.24;95.42
43155;BME280;34212;51.018;13.586;2023-02-04T09:56:52;99608.25;;;2.36;96.12
43155;BME280;34212;51.018;13.586;2023-02-04T10:02:00;99616.41;;;2.47;96.02
43155;BME280;34212;51.018;13.586;2023-02-04T10:07:02;99623.19;;;2.51;95.31
43155;BME280;34212;51.018;13.586;2023-02-04T10:12:05;99629.66;;;2.45;95.67
43155;BME280;34212;51.018;13.586;2023-02-04T10:17:08;99623.19;;;2.51;96.56
43155;BME280;34212;51.018;13.586;2023-02-04T10:22:18;99635.19;;;2.72;98.32
43155;BME280;34212;51.018;13.586;2023-02-04T10:27:20;99639.00;;;2.83;97.30
43155;BME280;34212;51.018;13.586;2023-02-04T10:32:29;99633.69;;;2.98;97.79
43155;BME280;34212;51.018;13.586;2023-02-04T10:37:30;99636.41;;;3.13;97.38
43155;BME280;34212;51.018;13.586;2023-02-04T10:42:33;99639.28;;;3.24;97.19
43155;BME280;34212;51.018;13.586;2023-02-04T10:47:35;99634.72;;;3.12;96.51
43155;BME280;34212;51.018;13.586;2023-02-04T10:52:43;99637.53;;;3.09;96.63
43155;BME280;34212;51.018;13.586;2023-02-04T10:57:47;99633.66;;;3.14;98.01
43155;BME280;34212;51.018;13.586;2023-02-04T11:08:35;99638.66;;;3.35;96.80
43155;BME280;34212;51.018;13.586;2023-02-04T11:18:53;99636.13;;;3.47;97.04
43155;BME280;34212;51.018;13.586;2023-02-04T11:29:27;99654.78;;;3.75;97.51
43155;BME280;34212;51.018;13.586;2023-02-04T11:34:43;99650.25;;;3.91;97.25
43155;BME280;34212;51.018;13.586;2023-02-04T11:39:47;99651.75;;;3.95;96.91
43155;BME280;34212;51.018;13.586;2023-02-04T11:45:04;99655.34;;;3.94;96.59
43155;BME280;34212;51.018;13.586;2023-02-04T11:50:18;99661.59;;;3.93;97.05
43155;BME280;34212;51.018;13.586;2023-02-04T11:55:20;99679.38;;;3.75;96.00
43155;BME280;34212;51.018;13.586;2023-02-04T12:00:24;99670.50;;;3.62;95.75
43155;BME280;34212;51.018;13.586;2023-02-04T12:05:39;99674.34;;;3.70;97.64
43155;BME280;34212;51.018;13.586;2023-02-04T12:11:32;99673.81;;;3.80;97.14
43155;BME280;34212;51.018;13.586;2023-02-04T12:16:09;99679.06;;;3.80;96.61
43155;BME280;34212;51.018;13.586;2023-02-04T12:21:11;99673.66;;;3.97;97.54
43155;BME280;34212;51.018;13.586;2023-02-04T12:26:14;99694.78;;;3.97;96.03
43155;BME280;34212;51.018;13.586;2023-02-04T12:31:16;99700.91;;;3.98;96.78
43155;BME280;34212;51.018;13.586;2023-02-04T12:36:17;99698.38;;;3.96;96.61
43155;BME280;34212;51.018;13.586;2023-02-04T12:41:19;99698.38;;;3.96;96.59
43155;BME280;34212;51.018;13.586;2023-02-04T12:46:20;99699.69;;;4.03;96.99
43155;BME280;34212;51.018;13.586;2023-02-04T12:51:22;99702.31;;;4.03;96.60
43155;BME280;34212;51.018;13.586;2023-02-04T12:56:23;99697.41;;;3.97;96.69
43155;BME280;34212;51.018;13.586;2023-02-04T13:01:25;99698.31;;;3.82;95.20
43155;BME280;34212;51.018;13.586;2023-02-04T13:06:26;99704.31;;;3.69;95.34
43155;BME280;34212;51.018;13.586;2023-02-04T13:11:27;99707.44;;;3.62;96.36
43155;BME280;34212;51.018;13.586;2023-02-04T13:16:29;99704.13;;;3.58;96.02
43155;BME280;34212;51.018;13.586;2023-02-04T13:21:30;99719.66;;;3.63;96.19
43155;BME280;34212;51.018;13.586;2023-02-04T13:26:32;99715.47;;;3.75;96.45
43155;BME280;34212;51.018;13.586;2023-02-04T13:31:33;99715.59;;;3.87;96.56
43155;BME280;34212;51.018;13.586;2023-02-04T13:36:35;99719.00;;;3.89;95.25
43155;BME280;34212;51.018;13.586;2023-02-04T13:41:36;99718.66;;;3.80;94.85
43155;BME280;34212;51.018;13.586;2023-02-04T13:46:38;99728.84;;;3.72;94.71
43155;BME280;34212;51.018;13.586;2023-02-04T13:51:41;99724.53;;;3.85;97.13
43155;BME280;34212;51.018;13.586;2023-02-04T13:56:42;99727.13;;;3.70;93.15
43155;BME280;34212;51.018;13.586;2023-02-04T14:01:44;99724.91;;;3.79;95.72
43155;BME280;34212;51.018;13.586;2023-02-04T14:06:45;99724.00;;;3.64;93.67
43155;BME280;34212;51.018;13.586;2023-02-04T14:11:47;99718.63;;;3.35;93.54
43155;BME280;34212;51.018;13.586;2023-02-04T14:16:48;99723.06;;;3.19;93.94
43155;BME280;34212;51.018;13.586;2023-02-04T14:21:50;99718.03;;;2.98;93.62
43155;BME280;34212;51.018;13.586;2023-02-04T14:26:53;99732.34;;;2.78;93.47
43155;BME280;34212;51.018;13.586;2023-02-04T14:31:56;99725.44;;;2.76;94.17
43155;BME280;34212;51.018;13.586;2023-02-04T14:36:58;99731.66;;;2.75;93.51
43155;BME280;34212;51.018;13.586;2023-02-04T14:41:59;99745.22;;;2.67;93.52
43155;BME280;34212;51.018;13.586;2023-02-04T14:47:04;99741.50;;;2.56;93.41
43155;BME280;34212;51.018;13.586;2023-02-04T14:52:06;99738.94;;;2.54;93.64
43155;BME280;34212;51.018;13.586;2023-02-04T14:57:10;99734.59;;;2.53;93.36
43155;BME280;34212;51.018;13.586;2023-02-04T15:02:12;99727.53;;;2.53;93.16
43155;BME280;34212;51.018;13.586;2023-02-04T15:07:16;99731.50;;;2.45;92.99
43155;BME280;34212;51.018;13.586;2023-02-04T15:12:19;99729.97;;;2.41;93.37
43155;BME280;34212;51.018;13.586;2023-02-04T15:17:21;99735.47;;;2.36;93.00
43155;BME280;34212;51.018;13.586;2023-02-04T15:22:22;99727.38;;;2.23;93.12
43155;BME280;34212;51.018;13.586;2023-02-04T15:27:24;99728.00;;;2.11;92.94
43155;BME280;34212;51.018;13.586;2023-02-04T15:32:26;99730.81;;;2.08;92.70
43155;BME280;34212;51.018;13.586;2023-02-04T15:37:27;99729.28;;;2.04;92.35
43155;BME280;34212;51.018;13.586;2023-02-04T15:42:29;99730.28;;;2.01;92.93
43155;BME280;34212;51.018;13.586;2023-02-04T15:47:30;99736.38;;;2.02;92.33
43155;BME280;34212;51.018;13.586;2023-02-04T15:52:32;99731.28;;;1.99;92.26
43155;BME280;34212;51.018;13.586;2023-02-04T15:57:33;99746.75;;;2.05;92.76
43155;BME280;34212;51.018;13.586;2023-02-04T16:02:35;99742.91;;;2.12;93.08
43155;BME280;34212;51.018;13.586;2023-02-04T16:07:36;99767.88;;;2.21;92.62
43155;BME280;34212;51.018;13.586;2023-02-04T16:12:38;99772.66;;;2.30;93.24
43155;BME280;34212;51.018;13.586;2023-02-04T16:17:39;99767.06;;;2.36;93.69
43155;BME280;34212;51.018;13.586;2023-02-04T16:22:41;99773.03;;;2.40;93.02
43155;BME280;34212;51.018;13.586;2023-02-04T16:27:42;99777.97;;;2.46;93.11
43155;BME280;34212;51.018;13.586;2023-02-04T16:32:44;99779.84;;;2.44;92.91
43155;BME280;34212;51.018;13.586;2023-02-04T16:37:45;99785.59;;;2.35;91.50
43155;BME280;34212;51.018;13.586;2023-02-04T16:42:47;99787.94;;;2.23;91.21
43155;BME280;34212;51.018;13.586;2023-02-04T16:47:48;99795.53;;;2.12;90.74
43155;BME280;34212;51.018;13.586;2023-02-04T16:52:50;99793.28;;;2.04;90.60
43155;BME280;34212;51.018;13.586;2023-02-04T16:57:51;99803.28;;;1.98;90.46
43155;BME280;34212;51.018;13.586;2023-02-04T17:02:52;99809.69;;;1.92;90.77
43155;BME280;34212;51.018;13.586;2023-02-04T17:07:54;99797.63;;;1.88;91.25
43155;BME280;34212;51.018;13.586;2023-02-04T17:12:55;99798.63;;;1.85;90.77
43155;BME280;34212;51.018;13.586;2023-02-04T17:17:57;99814.50;;;1.84;90.40
43155;BME280;34212;51.018;13.586;2023-02-04T17:22:58;99816.25;;;1.83;90.61
43155;BME280;34212;51.018;13.586;2023-02-04T17:28:00;99813.72;;;1.82;90.57
43155;BME280;34212;51.018;13.586;2023-02-04T17:33:01;99825.31;;;1.78;90.83
43155;BME280;34212;51.018;13.586;2023-02-04T17:38:03;99829.56;;;1.80;90.79
43155;BME280;34212;51.018;13.586;2023-02-04T17:43:04;99826.78;;;1.83;91.09
43155;BME280;34212;51.018;13.586;2023-02-04T17:48:07;99824.63;;;1.92;91.74
43155;BME280;34212;51.018;13.586;2023-02-04T17:53:09;99824.31;;;1.98;91.92
43155;BME280;34212;51.018;13.586;2023-02-04T17:58:14;99822.38;;;2.01;92.05
43155;BME280;34212;51.018;13.586;2023-02-04T18:03:19;99817.06;;;2.03;91.59
43155;BME280;34212;51.018;13.586;2023-02-04T18:08:26;99818.91;;;2.01;92.30
43155;BME280;34212;51.018;13.586;2023-02-04T18:13:32;99826.72;;;2.02;92.44
43155;BME280;34212;51.018;13.586;2023-02-04T18:18:39;99826.72;;;2.02;91.68
43155;BME280;34212;51.018;13.586;2023-02-04T18:23:41;99837.19;;;2.04;91.94
43155;BME280;34212;51.018;13.586;2023-02-04T18:28:45;99821.44;;;2.02;92.13
43155;BME280;34212;51.018;13.586;2023-02-04T18:33:48;99824.00;;;2.04;91.93
43155;BME280;34212;51.018;13.586;2023-02-04T18:38:49;99826.66;;;2.04;91.67
43155;BME280;34212;51.018;13.586;2023-02-04T18:43:57;99822.53;;;1.98;91.46
43155;BME280;34212;51.018;13.586;2023-02-04T18:49:18;99826.16;;;1.96;91.16
43155;BME280;34212;51.018;13.586;2023-02-04T18:59:34;99822.22;;;1.87;91.13
43155;BME280;34212;51.018;13.586;2023-02-04T19:04:36;99816.25;;;1.83;90.69
43155;BME280;34212;51.018;13.586;2023-02-04T19:09:38;99819.97;;;1.79;90.05
43155;BME280;34212;51.018;13.586;2023-02-04T19:14:41;99819.41;;;1.73;90.07
43155;BME280;34212;51.018;13.586;2023-02-04T19:20:16;99816.25;;;1.66;89.70
43155;BME280;34212;51.018;13.586;2023-02-04T19:35:48;99833.81;;;1.66;90.63
43155;BME280;34212;51.018;13.586;2023-02-04T19:40:50;99840.63;;;1.70;90.64
43155;BME280;34212;51.018;13.586;2023-02-04T19:45:53;99848.22;;;1.76;91.24
43155;BME280;34212;51.018;13.586;2023-02-04T19:50:54;99846.28;;;1.79;91.30
43155;BME280;34212;51.018;13.586;2023-02-04T19:55:56;99861.13;;;1.80;91.33
43155;BME280;34212;51.018;13.586;2023-02-04T20:01:02;99858.63;;;1.77;90.61
43155;BME280;34212;51.018;13.586;2023-02-04T20:16:59;99860.69;;;1.90;92.20
43155;BME280;34212;51.018;13.586;2023-02-04T20:27:36;99873.69;;;1.93;91.69
43155;BME280;34212;51.018;13.586;2023-02-04T20:32:51;99885.16;;;1.92;91.57
43155;BME280;34212;51.018;13.586;2023-02-04T20:37:56;99893.34;;;1.85;91.68
43155;BME280;34212;51.018;13.586;2023-02-04T20:42:59;99902.16;;;1.84;91.68
43155;BME280;34212;51.018;13.586;2023-02-04T20:53:26;99918.38;;;1.75;91.35
43155;BME280;34212;51.018;13.586;2023-02-04T20:58:35;99921.22;;;1.71;90.83
43155;BME280;34212;51.018;13.586;2023-02-04T21:03:37;99924.09;;;1.66;91.00
43155;BME280;34212;51.018;13.586;2023-02-04T21:08:42;99934.88;;;1.60;91.21
43155;BME280;34212;51.018;13.586;2023-02-04T21:13:44;99942.91;;;1.57;90.80
43155;BME280;34212;51.018;13.586;2023-02-04T21:18:45;99945.84;;;1.51;90.31
43155;BME280;34212;51.018;13.586;2023-02-04T21:23:47;99943.47;;;1.45;90.73
43155;BME280;34212;51.018;13.586;2023-02-04T21:28:49;99946.13;;;1.45;91.03
43155;BME280;34212;51.018;13.586;2023-02-04T21:33:50;99961.94;;;1.43;90.18
43155;BME280;34212;51.018;13.586;2023-02-04T21:38:54;99958.47;;;1.43;90.74
43155;BME280;34212;51.018;13.586;2023-02-04T21:43:56;99956.91;;;1.38;90.21
43155;BME280;34212;51.018;13.586;2023-02-04T21:48:57;99957.03;;;1.35;90.08
43155;BME280;34212;51.018;13.586;2023-02-04T21:53:59;99947.25;;;1.39;90.36
43155;BME280;34212;51.018;13.586;2023-02-04T21:59:04;99948.88;;;1.42;90.22
43155;BME280;34212;51.018;13.586;2023-02-04T22:04:06;99942.56;;;1.46;90.42
43155;BME280;34212;51.018;13.586;2023-02-04T22:09:07;99943.47;;;1.45;89.99
43155;BME280;34212;51.018;13.586;2023-02-04T22:14:08;99944.47;;;1.42;89.54
43155;BME280;34212;51.018;13.586;2023-02-04T22:19:10;99951.66;;;1.38;89.57
43155;BME280;34212;51.018;13.586;2023-02-04T22:24:11;99964.00;;;1.36;89.84
43155;BME280;34212;51.018;13.586;2023-02-04T22:29:13;99957.97;;;1.34;89.96
43155;BME280;34212;51.018;13.586;2023-02-04T22:34:15;99971.44;;;1.27;89.51
43155;BME280;34212;51.018;13.586;2023-02-04T22:39:16;99968.38;;;1.17;89.15
43155;BME280;34212;51.018;13.586;2023-02-04T22:44:18;99968.50;;;1.14;88.81
43155;BME280;34212;51.018;13.586;2023-02-04T22:49:19;99976.75;;;1.06;88.32
43155;BME280;34212;51.018;13.586;2023-02-04T22:54:21;99972.88;;;0.95;87.48
43155;BME280;34212;51.018;13.586;2023-02-04T22:59:23;99969.06;;;0.81;87.23
43155;BME280;34212;51.018;13.586;2023-02-04T23:04:24;99967.72;;;0.71;87.05
43155;BME280;34212;51.018;13.586;2023-02-04T23:09:26;99963.66;;;0.64;86.77
43155;BME280;34212;51.018;13.586;2023-02-04T23:14:28;99966.63;;;0.56;86.75
43155;BME280;34212;51.018;13.586;2023-02-04T23:19:29;99973.72;;;0.54;87.06
43155;BME280;34212;51.018;13.586;2023-02-04T23:24:31;99973.75;;;0.53;87.34
43155;BME280;34212;51.018;13.586;2023-02-04T23:29:33;99977.19;;;0.55;87.68
43155;BME280;34212;51.018;13.586;2023-02-04T23:34:38;99992.75;;;0.59;87.71
43155;BME280;34212;51.018;13.586;2023-02-04T23:39:39;99990.31;;;0.55;87.35
43155;BME280;34212;51.018;13.586;2023-02-04T23:44:40;99984.25;;;0.53;87.36
43155;BME280;34212;51.018;13.586;2023-02-04T23:49:42;99980.13;;;0.47;86.93
43155;BME280;34212;51.018;13.586;2023-02-04T23:54:43;99981.03;;;0.46;87.84
43155;BME280;34212;51.018;13.586;2023-02-04T23:59:45;99969.44;;;0.52;88.82
